TUI9K LDDU-LOWW
Flight info
| Callsign | TUI9K |
|---|---|
| Flight time | N/A |
| Altitude | 40000 |
| Route | MADOS L187 GEBNI DCT OBUTI OBUTI2W |
| Aircraft | B788/H-SDE1E2E3FGHIJ2J3J4J5M1RWXY/LB1D1 |
Departure
| Time | 2026-04-30 22:32 |
|---|---|
| Airport | Dubrovnik Ruđer Bošković Airport (LDDU) |
Arrival
| Time | N/A |
|---|---|
| Airport | Vienna International Airport (LOWW) |
| Time | Latitude | Longitude | Altitude | Speed | Heading |
|---|---|---|---|---|---|
| 2026-04-30 22:10 | 42.56061 | 18.26405 | 527 ft | 0 kts | 209° |
| 2026-04-30 22:22 | 42.56065 | 18.26408 | 527 ft | 2 kts | 208° |
| 2026-04-30 22:23 | 42.56078 | 18.26417 | 528 ft | 2 kts | 208° |
| 2026-04-30 22:23 | 42.56093 | 18.26430 | 529 ft | 3 kts | 239° |
| 2026-04-30 22:23 | 42.56097 | 18.26450 | 529 ft | 3 kts | 291° |
| 2026-04-30 22:23 | 42.56088 | 18.26474 | 529 ft | 2 kts | 301° |
| 2026-04-30 22:24 | 42.56085 | 18.26481 | 529 ft | 0 kts | 299° |
| 2026-04-30 22:26 | 42.56088 | 18.26472 | 529 ft | 2 kts | 300° |
| 2026-04-30 22:27 | 42.56100 | 18.26444 | 529 ft | 4 kts | 300° |
| 2026-04-30 22:27 | 42.56111 | 18.26417 | 529 ft | 4 kts | 300° |
| 2026-04-30 22:27 | 42.56189 | 18.26219 | 529 ft | 15 kts | 298° |
| 2026-04-30 22:28 | 42.56303 | 18.25936 | 529 ft | 17 kts | 296° |
| 2026-04-30 22:28 | 42.56358 | 18.25795 | 529 ft | 16 kts | 298° |
| 2026-04-30 22:29 | 42.56529 | 18.25368 | 529 ft | 21 kts | 298° |
| 2026-04-30 22:29 | 42.56600 | 18.25186 | 529 ft | 21 kts | 300° |
| 2026-04-30 22:30 | 42.56802 | 18.24707 | 530 ft | 0 kts | 319° |
| 2026-04-30 22:31 | 42.56906 | 18.24718 | 532 ft | 11 kts | 49° |
| 2026-04-30 22:32 | 42.56350 | 18.26327 | 533 ft | 152 kts | 115° |
| 2026-04-30 22:32 | 42.55152 | 18.29107 | 1693 ft | 194 kts | 109° |
| 2026-04-30 22:33 | 42.52019 | 18.32604 | 3841 ft | 270 kts | 187° |
| 2026-04-30 22:33 | 42.49484 | 18.29144 | 6172 ft | 268 kts | 258° |
| 2026-04-30 22:34 | 42.52591 | 18.24346 | 8676 ft | 262 kts | 1° |
| 2026-04-30 22:35 | 42.56309 | 18.24837 | 10366 ft | 271 kts | 3° |
| 2026-04-30 22:36 | 42.64451 | 18.22442 | 11881 ft | 344 kts | 336° |
| 2026-04-30 22:36 | 42.66691 | 18.21091 | 12338 ft | 357 kts | 336° |
| 2026-04-30 22:37 | 42.73686 | 18.16951 | 14476 ft | 372 kts | 336° |
| 2026-04-30 22:37 | 42.76075 | 18.15525 | 15119 ft | 377 kts | 336° |
| 2026-04-30 22:37 | 42.80950 | 18.12690 | 16459 ft | 384 kts | 340° |
| 2026-04-30 22:38 | 42.86008 | 18.10248 | 17727 ft | 392 kts | 339° |
| 2026-04-30 22:38 | 42.91199 | 18.07701 | 18896 ft | 400 kts | 339° |
| 2026-04-30 22:39 | 42.93802 | 18.06442 | 19447 ft | 403 kts | 339° |
| 2026-04-30 22:39 | 43.01838 | 18.02500 | 21089 ft | 410 kts | 339° |
| 2026-04-30 22:40 | 43.09960 | 17.98516 | 22632 ft | 418 kts | 339° |
| 2026-04-30 22:41 | 43.18252 | 17.94435 | 23988 ft | 425 kts | 339° |
| 2026-04-30 22:41 | 43.23857 | 17.91669 | 24762 ft | 428 kts | 338° |
| 2026-04-30 22:42 | 43.35182 | 17.86066 | 26135 ft | 437 kts | 338° |
| 2026-04-30 22:43 | 43.40934 | 17.83210 | 26799 ft | 441 kts | 338° |
| 2026-04-30 22:43 | 43.46733 | 17.80327 | 27434 ft | 445 kts | 338° |
| 2026-04-30 22:44 | 43.52553 | 17.77425 | 28030 ft | 449 kts | 338° |
| 2026-04-30 22:45 | 43.64426 | 17.71491 | 29190 ft | 456 kts | 338° |
| 2026-04-30 22:45 | 43.70404 | 17.68491 | 29733 ft | 459 kts | 338° |
| 2026-04-30 22:46 | 43.76401 | 17.65479 | 30231 ft | 462 kts | 338° |
| 2026-04-30 22:47 | 43.88543 | 17.59357 | 31110 ft | 469 kts | 339° |
| 2026-04-30 22:47 | 43.94720 | 17.56231 | 31637 ft | 470 kts | 339° |
| 2026-04-30 22:48 | 44.00831 | 17.53133 | 32216 ft | 469 kts | 338° |
| 2026-04-30 22:49 | 44.10025 | 17.48459 | 33059 ft | 469 kts | 339° |
| 2026-04-30 22:49 | 44.19222 | 17.43768 | 33902 ft | 469 kts | 338° |
| 2026-04-30 22:50 | 44.31470 | 17.37496 | 34909 ft | 469 kts | 339° |
| 2026-04-30 22:51 | 44.37611 | 17.34341 | 35370 ft | 469 kts | 339° |
| 2026-04-30 22:51 | 44.43724 | 17.31194 | 35832 ft | 468 kts | 339° |
| 2026-04-30 22:52 | 44.46783 | 17.29616 | 36054 ft | 468 kts | 339° |
| 2026-04-30 22:52 | 44.52893 | 17.26459 | 36485 ft | 468 kts | 339° |
| 2026-04-30 22:53 | 44.58994 | 17.23300 | 36941 ft | 468 kts | 339° |
| 2026-04-30 22:53 | 44.65094 | 17.20134 | 37352 ft | 467 kts | 339° |
| 2026-04-30 22:53 | 44.68151 | 17.18545 | 37572 ft | 467 kts | 339° |
| 2026-04-30 22:54 | 44.74225 | 17.15383 | 37972 ft | 467 kts | 339° |
| 2026-04-30 22:55 | 44.83370 | 17.10607 | 38594 ft | 467 kts | 339° |
| 2026-04-30 22:55 | 44.89476 | 17.07409 | 39013 ft | 467 kts | 339° |
| 2026-04-30 22:56 | 44.95567 | 17.04213 | 39327 ft | 467 kts | 339° |
| 2026-04-30 22:56 | 45.04713 | 16.99399 | 39775 ft | 467 kts | 339° |
| 2026-04-30 22:57 | 45.10771 | 16.96201 | 40089 ft | 467 kts | 339° |
| 2026-04-30 22:57 | 45.16880 | 16.92969 | 40358 ft | 468 kts | 339° |
| 2026-04-30 22:58 | 45.23023 | 16.89712 | 40371 ft | 475 kts | 339° |
| 2026-04-30 22:59 | 45.41971 | 16.79617 | 40395 ft | 492 kts | 339° |